sensor_id;sensor_type;location;lat;lon;timestamp;temperature;humidity
16229;DHT22;8222;51.462;12.630;2023-03-20T00:01:43;12.50;99.90
16229;DHT22;8222;51.462;12.630;2023-03-20T00:04:11;12.50;99.90
16229;DHT22;8222;51.462;12.630;2023-03-20T00:06:38;12.40;99.90
16229;DHT22;8222;51.462;12.630;2023-03-20T00:09:04;12.50;99.90
16229;DHT22;8222;51.462;12.630;2023-03-20T00:11:32;12.40;99.90
16229;DHT22;8222;51.462;12.630;2023-03-20T00:14:00;12.50;99.90
16229;DHT22;8222;51.462;12.630;2023-03-20T00:16:34;12.60;99.90
16229;DHT22;8222;51.462;12.630;2023-03-20T00:19:01;12.50;99.90
16229;DHT22;8222;51.462;12.630;2023-03-20T00:21:29;12.70;99.90
16229;DHT22;8222;51.462;12.630;2023-03-20T00:23:55;12.40;99.90
16229;DHT22;8222;51.462;12.630;2023-03-20T00:26:24;12.30;99.90
16229;DHT22;8222;51.462;12.630;2023-03-20T00:28:51;12.40;99.90
16229;DHT22;8222;51.462;12.630;2023-03-20T00:31:32;12.50;99.90
16229;DHT22;8222;51.462;12.630;2023-03-20T00:34:02;12.60;99.90
16229;DHT22;8222;51.462;12.630;2023-03-20T00:36:28;12.70;99.90
16229;DHT22;8222;51.462;12.630;2023-03-20T00:38:54;12.60;99.90
16229;DHT22;8222;51.462;12.630;2023-03-20T00:44:01;12.60;99.90
16229;DHT22;8222;51.462;12.630;2023-03-20T00:46:28;12.70;99.90
16229;DHT22;8222;51.462;12.630;2023-03-20T00:48:58;13.20;99.90
16229;DHT22;8222;51.462;12.630;2023-03-20T00:51:24;13.00;99.90
16229;DHT22;8222;51.462;12.630;2023-03-20T00:53:49;12.60;99.90
16229;DHT22;8222;51.462;12.630;2023-03-20T00:56:34;12.60;99.90
16229;DHT22;8222;51.462;12.630;2023-03-20T00:59:02;12.60;99.90
16229;DHT22;8222;51.462;12.630;2023-03-20T01:01:29;12.60;99.90
16229;DHT22;8222;51.462;12.630;2023-03-20T01:03:58;12.50;99.90
16229;DHT22;8222;51.462;12.630;2023-03-20T01:06:26;12.40;99.90
16229;DHT22;8222;51.462;12.630;2023-03-20T01:08:53;12.30;99.90
16229;DHT22;8222;51.462;12.630;2023-03-20T01:11:22;12.30;99.90
16229;DHT22;8222;51.462;12.630;2023-03-20T01:13:50;12.20;99.90
16229;DHT22;8222;51.462;12.630;2023-03-20T01:16:20;12.30;99.90
16229;DHT22;8222;51.462;12.630;2023-03-20T01:18:47;12.10;99.90
16229;DHT22;8222;51.462;12.630;2023-03-20T01:21:14;12.10;99.90
16229;DHT22;8222;51.462;12.630;2023-03-20T01:23:40;12.10;99.90
16229;DHT22;8222;51.462;12.630;2023-03-20T01:26:31;12.00;99.90
16229;DHT22;8222;51.462;12.630;2023-03-20T01:28:58;11.90;99.90
16229;DHT22;8222;51.462;12.630;2023-03-20T01:31:23;11.90;99.90
16229;DHT22;8222;51.462;12.630;2023-03-20T01:33:51;11.80;99.90
16229;DHT22;8222;51.462;12.630;2023-03-20T01:36:20;11.60;99.90
16229;DHT22;8222;51.462;12.630;2023-03-20T01:38:54;11.60;99.90
16229;DHT22;8222;51.462;12.630;2023-03-20T01:41:23;11.40;99.90
16229;DHT22;8222;51.462;12.630;2023-03-20T01:43:49;11.50;99.90
16229;DHT22;8222;51.462;12.630;2023-03-20T01:46:27;11.50;99.90
16229;DHT22;8222;51.462;12.630;2023-03-20T01:49:08;11.50;99.90
16229;DHT22;8222;51.462;12.630;2023-03-20T01:51:55;11.50;99.90
16229;DHT22;8222;51.462;12.630;2023-03-20T01:54:28;11.90;99.90
16229;DHT22;8222;51.462;12.630;2023-03-20T01:56:59;11.30;99.90
16229;DHT22;8222;51.462;12.630;2023-03-20T01:59:35;11.40;99.90
16229;DHT22;8222;51.462;12.630;2023-03-20T02:02:03;12.10;99.90
16229;DHT22;8222;51.462;12.630;2023-03-20T02:04:33;11.50;99.90
16229;DHT22;8222;51.462;12.630;2023-03-20T02:07:00;11.40;99.90
16229;DHT22;8222;51.462;12.630;2023-03-20T02:09:27;11.50;99.90
16229;DHT22;8222;51.462;12.630;2023-03-20T02:11:53;11.50;99.90
16229;DHT22;8222;51.462;12.630;2023-03-20T02:14:21;11.70;99.90
16229;DHT22;8222;51.462;12.630;2023-03-20T02:16:46;11.60;99.90
16229;DHT22;8222;51.462;12.630;2023-03-20T02:30:42;11.50;99.90
16229;DHT22;8222;51.462;12.630;2023-03-20T02:33:49;11.50;99.90
16229;DHT22;8222;51.462;12.630;2023-03-20T02:42:42;11.40;99.90
16229;DHT22;8222;51.462;12.630;2023-03-20T02:45:28;11.40;99.90
16229;DHT22;8222;51.462;12.630;2023-03-20T02:48:40;11.40;99.90
16229;DHT22;8222;51.462;12.630;2023-03-20T02:54:18;11.20;99.90
16229;DHT22;8222;51.462;12.630;2023-03-20T02:56:52;11.20;99.90
16229;DHT22;8222;51.462;12.630;2023-03-20T02:59:49;11.20;99.90
16229;DHT22;8222;51.462;12.630;2023-03-20T03:02:23;11.30;99.90
16229;DHT22;8222;51.462;12.630;2023-03-20T03:04:55;11.30;99.90
16229;DHT22;8222;51.462;12.630;2023-03-20T03:07:25;11.30;99.90
16229;DHT22;8222;51.462;12.630;2023-03-20T03:09:55;11.70;99.90
16229;DHT22;8222;51.462;12.630;2023-03-20T03:12:28;11.20;99.90
16229;DHT22;8222;51.462;12.630;2023-03-20T03:14:59;11.20;99.90
16229;DHT22;8222;51.462;12.630;2023-03-20T03:17:29;11.30;99.90
16229;DHT22;8222;51.462;12.630;2023-03-20T03:19:58;11.10;99.90
16229;DHT22;8222;51.462;12.630;2023-03-20T03:22:26;11.10;99.90
16229;DHT22;8222;51.462;12.630;2023-03-20T03:24:52;11.00;99.90
16229;DHT22;8222;51.462;12.630;2023-03-20T03:27:26;11.00;99.90
16229;DHT22;8222;51.462;12.630;2023-03-20T03:29:57;11.40;99.90
16229;DHT22;8222;51.462;12.630;2023-03-20T03:32:36;11.10;99.90
16229;DHT22;8222;51.462;12.630;2023-03-20T03:35:05;11.10;99.90
16229;DHT22;8222;51.462;12.630;2023-03-20T03:37:38;11.10;99.90
16229;DHT22;8222;51.462;12.630;2023-03-20T03:40:20;11.10;99.90
16229;DHT22;8222;51.462;12.630;2023-03-20T03:42:59;10.90;99.90
16229;DHT22;8222;51.462;12.630;2023-03-20T03:45:32;11.00;99.90
16229;DHT22;8222;51.462;12.630;2023-03-20T03:48:16;11.00;99.90
16229;DHT22;8222;51.462;12.630;2023-03-20T03:50:49;10.90;99.90
16229;DHT22;8222;51.462;12.630;2023-03-20T03:53:23;10.80;99.90
16229;DHT22;8222;51.462;12.630;2023-03-20T03:55:56;10.70;99.90
16229;DHT22;8222;51.462;12.630;2023-03-20T03:58:35;10.80;99.90
16229;DHT22;8222;51.462;12.630;2023-03-20T04:01:02;10.70;99.90
16229;DHT22;8222;51.462;12.630;2023-03-20T04:03:31;10.80;99.90
16229;DHT22;8222;51.462;12.630;2023-03-20T04:05:58;11.70;99.90
16229;DHT22;8222;51.462;12.630;2023-03-20T04:08:25;10.90;99.90
16229;DHT22;8222;51.462;12.630;2023-03-20T04:10:51;11.00;99.90
16229;DHT22;8222;51.462;12.630;2023-03-20T04:13:16;11.10;99.90
16229;DHT22;8222;51.462;12.630;2023-03-20T04:15:44;11.20;99.90
16229;DHT22;8222;51.462;12.630;2023-03-20T04:18:14;11.40;99.90
16229;DHT22;8222;51.462;12.630;2023-03-20T04:20:45;11.20;99.90
16229;DHT22;8222;51.462;12.630;2023-03-20T04:23:11;11.20;99.90
16229;DHT22;8222;51.462;12.630;2023-03-20T04:25:36;11.10;99.90
16229;DHT22;8222;51.462;12.630;2023-03-20T04:28:04;11.20;99.90
16229;DHT22;8222;51.462;12.630;2023-03-20T04:30:29;11.30;99.90
16229;DHT22;8222;51.462;12.630;2023-03-20T04:32:56;11.30;99.90
16229;DHT22;8222;51.462;12.630;2023-03-20T04:35:23;11.50;99.90
16229;DHT22;8222;51.462;12.630;2023-03-20T04:37:49;11.30;99.90
16229;DHT22;8222;51.462;12.630;2023-03-20T04:40:17;11.20;99.90
16229;DHT22;8222;51.462;12.630;2023-03-20T04:42:45;11.20;99.90
16229;DHT22;8222;51.462;12.630;2023-03-20T04:45:11;11.10;99.90
16229;DHT22;8222;51.462;12.630;2023-03-20T04:47:37;11.10;99.90
16229;DHT22;8222;51.462;12.630;2023-03-20T04:50:02;11.20;99.90
16229;DHT22;8222;51.462;12.630;2023-03-20T04:52:30;11.20;99.90
16229;DHT22;8222;51.462;12.630;2023-03-20T04:54:56;11.30;99.90
16229;DHT22;8222;51.462;12.630;2023-03-20T04:57:22;11.40;99.90
16229;DHT22;8222;51.462;12.630;2023-03-20T04:59:47;11.40;99.90
16229;DHT22;8222;51.462;12.630;2023-03-20T05:02:13;11.30;99.90
16229;DHT22;8222;51.462;12.630;2023-03-20T05:04:40;11.20;99.90
16229;DHT22;8222;51.462;12.630;2023-03-20T05:07:08;11.20;99.90
16229;DHT22;8222;51.462;12.630;2023-03-20T05:09:36;11.20;99.90
16229;DHT22;8222;51.462;12.630;2023-03-20T05:12:02;11.20;99.90
16229;DHT22;8222;51.462;12.630;2023-03-20T05:14:30;11.40;99.90
16229;DHT22;8222;51.462;12.630;2023-03-20T05:16:56;11.40;99.90
16229;DHT22;8222;51.462;12.630;2023-03-20T05:19:21;11.60;99.90
16229;DHT22;8222;51.462;12.630;2023-03-20T05:21:47;11.70;99.90
16229;DHT22;8222;51.462;12.630;2023-03-20T05:24:13;11.80;99.90
16229;DHT22;8222;51.462;12.630;2023-03-20T05:26:38;11.80;99.90
16229;DHT22;8222;51.462;12.630;2023-03-20T05:29:06;11.80;99.90
16229;DHT22;8222;51.462;12.630;2023-03-20T05:31:32;11.90;99.90
16229;DHT22;8222;51.462;12.630;2023-03-20T05:33:58;11.90;99.90
16229;DHT22;8222;51.462;12.630;2023-03-20T05:36:23;11.90;99.90
16229;DHT22;8222;51.462;12.630;2023-03-20T05:38:51;11.90;99.90
16229;DHT22;8222;51.462;12.630;2023-03-20T05:41:17;11.90;99.90
16229;DHT22;8222;51.462;12.630;2023-03-20T05:43:42;11.80;99.90
16229;DHT22;8222;51.462;12.630;2023-03-20T05:46:08;11.90;99.90
16229;DHT22;8222;51.462;12.630;2023-03-20T05:48:35;11.90;99.90
16229;DHT22;8222;51.462;12.630;2023-03-20T05:51:01;12.00;99.90
16229;DHT22;8222;51.462;12.630;2023-03-20T05:53:29;11.90;99.90
16229;DHT22;8222;51.462;12.630;2023-03-20T05:55:54;12.10;99.90
16229;DHT22;8222;51.462;12.630;2023-03-20T05:58:20;12.10;99.90
16229;DHT22;8222;51.462;12.630;2023-03-20T06:00:46;12.10;99.90
16229;DHT22;8222;51.462;12.630;2023-03-20T06:03:13;12.30;99.90
16229;DHT22;8222;51.462;12.630;2023-03-20T06:05:40;12.20;99.90
16229;DHT22;8222;51.462;12.630;2023-03-20T06:08:06;12.30;99.90
16229;DHT22;8222;51.462;12.630;2023-03-20T06:10:34;12.40;99.90
16229;DHT22;8222;51.462;12.630;2023-03-20T06:13:00;12.40;99.90
16229;DHT22;8222;51.462;12.630;2023-03-20T06:15:26;12.20;99.90
16229;DHT22;8222;51.462;12.630;2023-03-20T06:17:53;12.20;99.90
16229;DHT22;8222;51.462;12.630;2023-03-20T06:20:19;12.30;99.90
16229;DHT22;8222;51.462;12.630;2023-03-20T06:22:47;12.20;99.90
16229;DHT22;8222;51.462;12.630;2023-03-20T06:25:12;12.40;99.90
16229;DHT22;8222;51.462;12.630;2023-03-20T06:27:38;12.40;99.90
16229;DHT22;8222;51.462;12.630;2023-03-20T06:30:07;12.50;99.90
16229;DHT22;8222;51.462;12.630;2023-03-20T06:32:33;12.40;99.90
16229;DHT22;8222;51.462;12.630;2023-03-20T06:34:58;12.20;99.90
16229;DHT22;8222;51.462;12.630;2023-03-20T06:37:26;12.10;99.90
16229;DHT22;8222;51.462;12.630;2023-03-20T06:39:52;12.20;99.90
16229;DHT22;8222;51.462;12.630;2023-03-20T06:42:17;12.20;99.90
16229;DHT22;8222;51.462;12.630;2023-03-20T06:44:43;12.20;99.90
16229;DHT22;8222;51.462;12.630;2023-03-20T06:47:09;12.00;99.90
16229;DHT22;8222;51.462;12.630;2023-03-20T06:49:35;12.10;99.90
16229;DHT22;8222;51.462;12.630;2023-03-20T06:52:01;12.20;99.90
16229;DHT22;8222;51.462;12.630;2023-03-20T06:54:27;12.30;99.90
16229;DHT22;8222;51.462;12.630;2023-03-20T06:56:52;12.30;99.90
16229;DHT22;8222;51.462;12.630;2023-03-20T06:59:20;12.80;99.90
16229;DHT22;8222;51.462;12.630;2023-03-20T07:01:46;12.80;99.90
16229;DHT22;8222;51.462;12.630;2023-03-20T07:04:12;12.40;99.90
16229;DHT22;8222;51.462;12.630;2023-03-20T07:06:37;12.30;99.90
16229;DHT22;8222;51.462;12.630;2023-03-20T07:09:03;12.30;99.90
16229;DHT22;8222;51.462;12.630;2023-03-20T07:11:32;12.30;99.90
16229;DHT22;8222;51.462;12.630;2023-03-20T07:13:58;12.40;99.90
16229;DHT22;8222;51.462;12.630;2023-03-20T07:16:25;12.30;99.90
16229;DHT22;8222;51.462;12.630;2023-03-20T07:18:52;12.20;99.90
16229;DHT22;8222;51.462;12.630;2023-03-20T07:21:20;12.50;99.90
16229;DHT22;8222;51.462;12.630;2023-03-20T07:23:48;12.40;99.90
16229;DHT22;8222;51.462;12.630;2023-03-20T07:26:13;12.50;99.90
16229;DHT22;8222;51.462;12.630;2023-03-20T07:28:39;12.50;99.90
16229;DHT22;8222;51.462;12.630;2023-03-20T07:31:05;12.50;99.90
16229;DHT22;8222;51.462;12.630;2023-03-20T07:33:31;12.50;99.90
16229;DHT22;8222;51.462;12.630;2023-03-20T07:35:56;12.60;99.90
16229;DHT22;8222;51.462;12.630;2023-03-20T07:38:22;12.80;99.90
16229;DHT22;8222;51.462;12.630;2023-03-20T07:40:48;12.90;99.90
16229;DHT22;8222;51.462;12.630;2023-03-20T07:43:19;12.90;99.90
16229;DHT22;8222;51.462;12.630;2023-03-20T07:45:47;12.90;99.90
16229;DHT22;8222;51.462;12.630;2023-03-20T07:48:13;12.90;99.90
16229;DHT22;8222;51.462;12.630;2023-03-20T07:50:38;12.80;99.90
16229;DHT22;8222;51.462;12.630;2023-03-20T07:53:04;12.30;99.90
16229;DHT22;8222;51.462;12.630;2023-03-20T07:55:30;13.00;99.90
16229;DHT22;8222;51.462;12.630;2023-03-20T07:57:55;13.30;99.90
16229;DHT22;8222;51.462;12.630;2023-03-20T08:00:21;13.50;99.90
16229;DHT22;8222;51.462;12.630;2023-03-20T08:02:47;13.60;99.90
16229;DHT22;8222;51.462;12.630;2023-03-20T08:05:12;13.70;99.90
16229;DHT22;8222;51.462;12.630;2023-03-20T08:07:38;13.70;99.90
16229;DHT22;8222;51.462;12.630;2023-03-20T08:10:06;13.60;99.90
16229;DHT22;8222;51.462;12.630;2023-03-20T08:12:32;13.60;99.90
16229;DHT22;8222;51.462;12.630;2023-03-20T08:14:57;13.80;99.90
16229;DHT22;8222;51.462;12.630;2023-03-20T08:17:23;13.50;99.90
16229;DHT22;8222;51.462;12.630;2023-03-20T08:19:49;13.50;99.90
16229;DHT22;8222;51.462;12.630;2023-03-20T08:22:17;13.20;99.90
16229;DHT22;8222;51.462;12.630;2023-03-20T08:24:43;13.20;99.90
16229;DHT22;8222;51.462;12.630;2023-03-20T08:27:09;13.20;99.90
16229;DHT22;8222;51.462;12.630;2023-03-20T08:29:34;13.30;99.90
16229;DHT22;8222;51.462;12.630;2023-03-20T08:32:02;13.40;99.90
16229;DHT22;8222;51.462;12.630;2023-03-20T08:34:27;13.40;99.90
16229;DHT22;8222;51.462;12.630;2023-03-20T08:36:53;13.40;99.90
16229;DHT22;8222;51.462;12.630;2023-03-20T08:39:19;13.70;99.90
16229;DHT22;8222;51.462;12.630;2023-03-20T08:41:46;13.80;99.90
16229;DHT22;8222;51.462;12.630;2023-03-20T08:44:12;13.80;99.90
16229;DHT22;8222;51.462;12.630;2023-03-20T08:46:38;13.80;99.90
16229;DHT22;8222;51.462;12.630;2023-03-20T08:49:04;13.60;99.90
16229;DHT22;8222;51.462;12.630;2023-03-20T08:51:30;13.40;99.90
16229;DHT22;8222;51.462;12.630;2023-03-20T08:53:56;13.60;99.90
16229;DHT22;8222;51.462;12.630;2023-03-20T08:56:22;13.90;99.90
16229;DHT22;8222;51.462;12.630;2023-03-20T08:58:49;13.80;99.90
16229;DHT22;8222;51.462;12.630;2023-03-20T09:01:17;13.90;99.90
16229;DHT22;8222;51.462;12.630;2023-03-20T09:03:44;14.20;99.90
16229;DHT22;8222;51.462;12.630;2023-03-20T09:06:09;14.40;99.90
16229;DHT22;8222;51.462;12.630;2023-03-20T09:08:36;14.30;99.90
16229;DHT22;8222;51.462;12.630;2023-03-20T09:11:02;14.40;99.90
16229;DHT22;8222;51.462;12.630;2023-03-20T09:13:28;14.40;99.90
16229;DHT22;8222;51.462;12.630;2023-03-20T09:15:55;14.30;99.90
16229;DHT22;8222;51.462;12.630;2023-03-20T09:18:21;14.20;99.90
16229;DHT22;8222;51.462;12.630;2023-03-20T09:20:47;13.80;99.90
16229;DHT22;8222;51.462;12.630;2023-03-20T09:23:13;13.60;99.90
16229;DHT22;8222;51.462;12.630;2023-03-20T09:25:39;13.50;99.90
16229;DHT22;8222;51.462;12.630;2023-03-20T09:28:05;13.50;99.90
16229;DHT22;8222;51.462;12.630;2023-03-20T09:30:31;13.40;99.90
16229;DHT22;8222;51.462;12.630;2023-03-20T09:32:57;13.40;99.90
16229;DHT22;8222;51.462;12.630;2023-03-20T09:35:23;13.30;99.90
16229;DHT22;8222;51.462;12.630;2023-03-20T09:37:48;13.20;99.90
16229;DHT22;8222;51.462;12.630;2023-03-20T09:40:23;13.30;99.90
16229;DHT22;8222;51.462;12.630;2023-03-20T09:43:18;13.20;99.90
16229;DHT22;8222;51.462;12.630;2023-03-20T09:55:58;13.70;99.90
16229;DHT22;8222;51.462;12.630;2023-03-20T09:58:29;13.70;99.90
16229;DHT22;8222;51.462;12.630;2023-03-20T10:00:57;13.60;99.90
16229;DHT22;8222;51.462;12.630;2023-03-20T10:03:38;13.80;99.90
16229;DHT22;8222;51.462;12.630;2023-03-20T10:06:13;13.80;99.90
16229;DHT22;8222;51.462;12.630;2023-03-20T10:08:39;13.80;99.90
16229;DHT22;8222;51.462;12.630;2023-03-20T10:14:01;13.80;99.90
16229;DHT22;8222;51.462;12.630;2023-03-20T10:16:38;13.90;99.90
16229;DHT22;8222;51.462;12.630;2023-03-20T10:19:21;13.80;99.90
16229;DHT22;8222;51.462;12.630;2023-03-20T10:22:09;13.90;99.90
16229;DHT22;8222;51.462;12.630;2023-03-20T10:24:51;13.80;99.90
16229;DHT22;8222;51.462;12.630;2023-03-20T10:27:45;13.80;99.90
16229;DHT22;8222;51.462;12.630;2023-03-20T10:30:32;13.80;99.90
16229;DHT22;8222;51.462;12.630;2023-03-20T10:33:32;13.60;99.90
16229;DHT22;8222;51.462;12.630;2023-03-20T10:36:28;13.80;99.90
16229;DHT22;8222;51.462;12.630;2023-03-20T10:41:46;14.00;99.90
16229;DHT22;8222;51.462;12.630;2023-03-20T10:44:21;13.80;99.90
16229;DHT22;8222;51.462;12.630;2023-03-20T10:46:50;13.80;99.90
16229;DHT22;8222;51.462;12.630;2023-03-20T10:49:39;13.80;99.90
16229;DHT22;8222;51.462;12.630;2023-03-20T10:52:13;13.80;99.90
16229;DHT22;8222;51.462;12.630;2023-03-20T10:54:47;13.70;99.90
16229;DHT22;8222;51.462;12.630;2023-03-20T10:57:23;13.50;99.90
16229;DHT22;8222;51.462;12.630;2023-03-20T10:59:52;13.50;99.90
16229;DHT22;8222;51.462;12.630;2023-03-20T11:02:20;13.50;99.90
16229;DHT22;8222;51.462;12.630;2023-03-20T11:04:46;13.60;99.90
16229;DHT22;8222;51.462;12.630;2023-03-20T11:07:26;13.60;99.90
16229;DHT22;8222;51.462;12.630;2023-03-20T11:10:18;13.60;99.90
16229;DHT22;8222;51.462;12.630;2023-03-20T11:12:46;13.30;99.90
16229;DHT22;8222;51.462;12.630;2023-03-20T11:15:20;13.30;99.90
16229;DHT22;8222;51.462;12.630;2023-03-20T11:17:52;13.50;99.90
16229;DHT22;8222;51.462;12.630;2023-03-20T11:20:18;13.60;99.90
16229;DHT22;8222;51.462;12.630;2023-03-20T11:22:46;13.30;99.90
16229;DHT22;8222;51.462;12.630;2023-03-20T11:28:37;13.30;99.90
16229;DHT22;8222;51.462;12.630;2023-03-20T11:33:41;13.50;99.90
16229;DHT22;8222;51.462;12.630;2023-03-20T11:38:46;13.30;99.90
16229;DHT22;8222;51.462;12.630;2023-03-20T11:41:22;13.40;99.90
16229;DHT22;8222;51.462;12.630;2023-03-20T11:43:48;13.40;99.90
16229;DHT22;8222;51.462;12.630;2023-03-20T11:46:13;13.20;99.90
16229;DHT22;8222;51.462;12.630;2023-03-20T11:48:42;13.00;99.90
16229;DHT22;8222;51.462;12.630;2023-03-20T11:51:16;12.90;99.90
16229;DHT22;8222;51.462;12.630;2023-03-20T12:01:35;12.70;99.90
16229;DHT22;8222;51.462;12.630;2023-03-20T12:04:08;12.80;99.90
16229;DHT22;8222;51.462;12.630;2023-03-20T12:09:29;12.70;99.90
16229;DHT22;8222;51.462;12.630;2023-03-20T12:15:21;13.00;99.90
16229;DHT22;8222;51.462;12.630;2023-03-20T12:20:51;13.30;99.90
16229;DHT22;8222;51.462;12.630;2023-03-20T12:23:39;13.40;99.90
16229;DHT22;8222;51.462;12.630;2023-03-20T12:31:47;13.80;99.90
16229;DHT22;8222;51.462;12.630;2023-03-20T12:34:17;13.80;99.90
16229;DHT22;8222;51.462;12.630;2023-03-20T12:36:47;13.90;99.90
16229;DHT22;8222;51.462;12.630;2023-03-20T12:39:19;13.70;99.90
16229;DHT22;8222;51.462;12.630;2023-03-20T12:50:18;13.60;99.90
16229;DHT22;8222;51.462;12.630;2023-03-20T13:12:31;13.90;99.90
16229;DHT22;8222;51.462;12.630;2023-03-20T13:18:12;14.00;99.90
16229;DHT22;8222;51.462;12.630;2023-03-20T13:20:54;14.00;99.90
16229;DHT22;8222;51.462;12.630;2023-03-20T13:37:57;14.10;99.90
16229;DHT22;8222;51.462;12.630;2023-03-20T13:40:28;14.00;99.90
16229;DHT22;8222;51.462;12.630;2023-03-20T13:42:59;14.00;99.90
16229;DHT22;8222;51.462;12.630;2023-03-20T13:45:39;14.10;99.90
16229;DHT22;8222;51.462;12.630;2023-03-20T13:48:40;14.20;99.90
16229;DHT22;8222;51.462;12.630;2023-03-20T13:56:21;14.90;99.90
16229;DHT22;8222;51.462;12.630;2023-03-20T13:59:06;15.10;99.90
16229;DHT22;8222;51.462;12.630;2023-03-20T14:04:45;15.70;99.90
16229;DHT22;8222;51.462;12.630;2023-03-20T14:07:38;15.80;99.90
16229;DHT22;8222;51.462;12.630;2023-03-20T14:13:11;16.00;99.90
16229;DHT22;8222;51.462;12.630;2023-03-20T14:15:39;15.80;99.90
16229;DHT22;8222;51.462;12.630;2023-03-20T14:18:16;15.70;99.90
16229;DHT22;8222;51.462;12.630;2023-03-20T14:20:53;15.70;99.90
16229;DHT22;8222;51.462;12.630;2023-03-20T14:23:27;15.60;99.90
16229;DHT22;8222;51.462;12.630;2023-03-20T14:25:54;15.80;99.90
16229;DHT22;8222;51.462;12.630;2023-03-20T14:28:23;16.00;99.90
16229;DHT22;8222;51.462;12.630;2023-03-20T14:31:09;16.00;99.90
16229;DHT22;8222;51.462;12.630;2023-03-20T14:33:41;15.90;99.90
16229;DHT22;8222;51.462;12.630;2023-03-20T14:36:21;16.10;99.90
16229;DHT22;8222;51.462;12.630;2023-03-20T14:39:11;16.10;99.90
16229;DHT22;8222;51.462;12.630;2023-03-20T14:47:47;16.10;99.90
16229;DHT22;8222;51.462;12.630;2023-03-20T14:53:15;16.50;99.90
16229;DHT22;8222;51.462;12.630;2023-03-20T15:01:40;16.30;99.90
16229;DHT22;8222;51.462;12.630;2023-03-20T15:04:27;16.40;99.90
16229;DHT22;8222;51.462;12.630;2023-03-20T15:07:03;16.60;99.90
16229;DHT22;8222;51.462;12.630;2023-03-20T15:09:33;16.50;99.90
16229;DHT22;8222;51.462;12.630;2023-03-20T15:12:00;16.50;99.90
16229;DHT22;8222;51.462;12.630;2023-03-20T15:14:36;16.20;99.90
16229;DHT22;8222;51.462;12.630;2023-03-20T15:17:14;16.20;99.90
16229;DHT22;8222;51.462;12.630;2023-03-20T15:19:40;16.50;99.90
16229;DHT22;8222;51.462;12.630;2023-03-20T15:22:14;16.20;99.90
16229;DHT22;8222;51.462;12.630;2023-03-20T15:24:54;15.90;99.90
16229;DHT22;8222;51.462;12.630;2023-03-20T15:27:23;15.70;99.90
16229;DHT22;8222;51.462;12.630;2023-03-20T15:29:52;15.60;99.90
16229;DHT22;8222;51.462;12.630;2023-03-20T15:32:19;15.60;99.90
16229;DHT22;8222;51.462;12.630;2023-03-20T15:34:47;15.40;99.90
16229;DHT22;8222;51.462;12.630;2023-03-20T15:37:16;15.30;99.90
16229;DHT22;8222;51.462;12.630;2023-03-20T15:39:44;15.30;99.90
16229;DHT22;8222;51.462;12.630;2023-03-20T15:42:13;15.30;99.90
16229;DHT22;8222;51.462;12.630;2023-03-20T15:44:43;15.30;99.90
16229;DHT22;8222;51.462;12.630;2023-03-20T15:49:39;15.30;99.90
16229;DHT22;8222;51.462;12.630;2023-03-20T15:54:50;15.20;99.90
16229;DHT22;8222;51.462;12.630;2023-03-20T15:57:24;15.20;99.90
16229;DHT22;8222;51.462;12.630;2023-03-20T15:59:51;15.20;99.90
16229;DHT22;8222;51.462;12.630;2023-03-20T16:02:17;15.20;99.90
16229;DHT22;8222;51.462;12.630;2023-03-20T16:04:50;15.20;99.90
16229;DHT22;8222;51.462;12.630;2023-03-20T16:07:30;15.20;99.90
16229;DHT22;8222;51.462;12.630;2023-03-20T16:09:58;15.10;99.90
16229;DHT22;8222;51.462;12.630;2023-03-20T16:12:24;15.10;99.90
16229;DHT22;8222;51.462;12.630;2023-03-20T16:14:51;15.00;99.90
16229;DHT22;8222;51.462;12.630;2023-03-20T16:17:19;15.00;99.90
16229;DHT22;8222;51.462;12.630;2023-03-20T16:19:45;14.90;99.90
16229;DHT22;8222;51.462;12.630;2023-03-20T16:22:27;14.90;99.90
16229;DHT22;8222;51.462;12.630;2023-03-20T16:24:56;14.80;99.90
16229;DHT22;8222;51.462;12.630;2023-03-20T16:27:30;14.70;99.90
16229;DHT22;8222;51.462;12.630;2023-03-20T16:29:57;14.70;99.90
16229;DHT22;8222;51.462;12.630;2023-03-20T16:32:54;14.70;99.90
16229;DHT22;8222;51.462;12.630;2023-03-20T16:35:31;14.60;99.90
16229;DHT22;8222;51.462;12.630;2023-03-20T16:38:01;14.60;99.90
16229;DHT22;8222;51.462;12.630;2023-03-20T16:40:38;14.70;99.90
16229;DHT22;8222;51.462;12.630;2023-03-20T16:43:18;14.70;99.90
16229;DHT22;8222;51.462;12.630;2023-03-20T16:45:48;14.60;99.90
16229;DHT22;8222;51.462;12.630;2023-03-20T16:50:42;14.50;99.90
16229;DHT22;8222;51.462;12.630;2023-03-20T16:53:13;14.50;99.90
16229;DHT22;8222;51.462;12.630;2023-03-20T16:55:45;14.50;99.90
16229;DHT22;8222;51.462;12.630;2023-03-20T16:58:19;14.60;99.90
16229;DHT22;8222;51.462;12.630;2023-03-20T17:01:07;14.40;99.90
16229;DHT22;8222;51.462;12.630;2023-03-20T17:08:50;14.40;99.90
16229;DHT22;8222;51.462;12.630;2023-03-20T17:11:30;14.20;99.90
16229;DHT22;8222;51.462;12.630;2023-03-20T17:13:57;14.20;99.90
16229;DHT22;8222;51.462;12.630;2023-03-20T17:16:23;14.20;99.90
16229;DHT22;8222;51.462;12.630;2023-03-20T17:19:02;14.10;99.90
16229;DHT22;8222;51.462;12.630;2023-03-20T17:21:29;13.90;99.90
16229;DHT22;8222;51.462;12.630;2023-03-20T17:23:54;13.90;99.90
16229;DHT22;8222;51.462;12.630;2023-03-20T17:26:20;13.90;99.90
16229;DHT22;8222;51.462;12.630;2023-03-20T17:28:53;14.40;99.90
16229;DHT22;8222;51.462;12.630;2023-03-20T17:31:19;13.70;99.90
16229;DHT22;8222;51.462;12.630;2023-03-20T17:33:45;13.60;99.90
16229;DHT22;8222;51.462;12.630;2023-03-20T17:36:26;13.70;99.90
16229;DHT22;8222;51.462;12.630;2023-03-20T17:38:55;13.50;99.90
16229;DHT22;8222;51.462;12.630;2023-03-20T17:41:21;13.40;99.90
16229;DHT22;8222;51.462;12.630;2023-03-20T17:43:48;13.30;99.90
16229;DHT22;8222;51.462;12.630;2023-03-20T17:46:27;13.30;99.90
16229;DHT22;8222;51.462;12.630;2023-03-20T17:49:04;13.40;99.90
16229;DHT22;8222;51.462;12.630;2023-03-20T17:51:30;13.20;99.90
16229;DHT22;8222;51.462;12.630;2023-03-20T17:53:57;13.30;99.90
16229;DHT22;8222;51.462;12.630;2023-03-20T17:56:24;13.30;99.90
16229;DHT22;8222;51.462;12.630;2023-03-20T17:58:56;13.70;99.90
16229;DHT22;8222;51.462;12.630;2023-03-20T18:01:22;13.40;99.90
16229;DHT22;8222;51.462;12.630;2023-03-20T18:03:48;13.30;99.90
16229;DHT22;8222;51.462;12.630;2023-03-20T18:06:24;13.10;99.90
16229;DHT22;8222;51.462;12.630;2023-03-20T18:08:52;13.00;99.90
16229;DHT22;8222;51.462;12.630;2023-03-20T18:11:18;13.00;99.90
16229;DHT22;8222;51.462;12.630;2023-03-20T18:13:44;13.00;99.90
16229;DHT22;8222;51.462;12.630;2023-03-20T18:16:22;13.10;99.90
16229;DHT22;8222;51.462;12.630;2023-03-20T18:18:49;13.10;99.90
16229;DHT22;8222;51.462;12.630;2023-03-20T18:21:16;12.90;99.90
16229;DHT22;8222;51.462;12.630;2023-03-20T18:23:44;12.80;99.90
16229;DHT22;8222;51.462;12.630;2023-03-20T18:26:20;12.70;99.90